sensor_id;sensor_type;location;lat;lon;timestamp;pressure;altitude;pressure_sealevel;temperature;humidity
2178;BME280;1095;50.992;6.798;2024-03-06T00:00:56;101160.19;;;6.34;99.78
2178;BME280;1095;50.992;6.798;2024-03-06T00:03:53;101164.22;;;6.25;99.95
2178;BME280;1095;50.992;6.798;2024-03-06T00:06:36;101158.00;;;6.26;99.48
2178;BME280;1095;50.992;6.798;2024-03-06T00:09:15;101164.28;;;6.10;99.40
2178;BME280;1095;50.992;6.798;2024-03-06T00:14:32;101176.22;;;5.85;100.00
2178;BME280;1095;50.992;6.798;2024-03-06T00:17:09;101172.25;;;5.78;100.00
2178;BME280;1095;50.992;6.798;2024-03-06T00:19:48;101181.09;;;5.61;100.00
2178;BME280;1095;50.992;6.798;2024-03-06T00:22:14;101184.78;;;5.58;100.00
2178;BME280;1095;50.992;6.798;2024-03-06T00:24:42;101197.97;;;5.57;100.00
2178;BME280;1095;50.992;6.798;2024-03-06T00:27:11;101193.19;;;5.49;100.00
2178;BME280;1095;50.992;6.798;2024-03-06T00:29:44;101195.88;;;5.48;100.00
2178;BME280;1095;50.992;6.798;2024-03-06T00:32:13;101199.97;;;5.38;100.00
2178;BME280;1095;50.992;6.798;2024-03-06T00:34:40;101208.50;;;5.41;100.00
2178;BME280;1095;50.992;6.798;2024-03-06T00:37:06;101205.38;;;5.50;100.00
2178;BME280;1095;50.992;6.798;2024-03-06T00:39:34;101205.63;;;5.46;100.00
2178;BME280;1095;50.992;6.798;2024-03-06T00:42:01;101206.06;;;5.38;100.00
2178;BME280;1095;50.992;6.798;2024-03-06T00:44:34;101208.50;;;5.41;100.00
2178;BME280;1095;50.992;6.798;2024-03-06T00:47:25;101212.91;;;5.41;100.00
2178;BME280;1095;50.992;6.798;2024-03-06T00:50:02;101223.31;;;5.42;100.00
2178;BME280;1095;50.992;6.798;2024-03-06T01:02:18;101219.28;;;5.37;100.00
2178;BME280;1095;50.992;6.798;2024-03-06T01:22:05;101245.84;;;5.15;100.00
2178;BME280;1095;50.992;6.798;2024-03-06T01:28:40;101250.28;;;4.81;100.00
2178;BME280;1095;50.992;6.798;2024-03-06T01:31:36;101256.88;;;4.72;100.00
2178;BME280;1095;50.992;6.798;2024-03-06T01:34:13;101249.34;;;4.66;100.00
2178;BME280;1095;50.992;6.798;2024-03-06T01:39:35;101250.53;;;4.61;100.00
2178;BME280;1095;50.992;6.798;2024-03-06T01:42:30;101253.97;;;4.61;100.00
2178;BME280;1095;50.992;6.798;2024-03-06T01:45:20;101249.03;;;4.55;100.00
2178;BME280;1095;50.992;6.798;2024-03-06T01:48:27;101253.78;;;4.48;100.00
2178;BME280;1095;50.992;6.798;2024-03-06T01:51:31;101259.94;;;4.47;100.00
2178;BME280;1095;50.992;6.798;2024-03-06T01:58:26;101251.25;;;4.29;100.00
2178;BME280;1095;50.992;6.798;2024-03-06T02:00:54;101253.19;;;4.26;100.00
2178;BME280;1095;50.992;6.798;2024-03-06T02:04:14;101256.56;;;4.28;100.00
2178;BME280;1095;50.992;6.798;2024-03-06T02:06:54;101260.66;;;4.16;100.00
2178;BME280;1095;50.992;6.798;2024-03-06T02:09:32;101257.59;;;4.08;100.00
2178;BME280;1095;50.992;6.798;2024-03-06T02:12:34;101256.41;;;4.14;100.00
2178;BME280;1095;50.992;6.798;2024-03-06T02:15:58;101260.81;;;4.13;100.00
2178;BME280;1095;50.992;6.798;2024-03-06T02:18:52;101263.97;;;4.02;100.00
2178;BME280;1095;50.992;6.798;2024-03-06T02:21:35;101272.47;;;4.08;100.00
2178;BME280;1095;50.992;6.798;2024-03-06T02:24:11;101256.97;;;4.20;100.00
2178;BME280;1095;50.992;6.798;2024-03-06T02:26:58;101265.53;;;4.07;100.00
2178;BME280;1095;50.992;6.798;2024-03-06T02:29:42;101265.91;;;3.99;100.00
2178;BME280;1095;50.992;6.798;2024-03-06T02:32:16;101275.53;;;3.98;100.00
2178;BME280;1095;50.992;6.798;2024-03-06T02:34:57;101278.84;;;4.02;100.00
2178;BME280;1095;50.992;6.798;2024-03-06T02:37:39;101272.13;;;3.96;100.00
2178;BME280;1095;50.992;6.798;2024-03-06T02:40:13;101279.22;;;3.94;100.00
2178;BME280;1095;50.992;6.798;2024-03-06T02:42:47;101273.44;;;3.88;100.00
2178;BME280;1095;50.992;6.798;2024-03-06T02:45:14;101271.97;;;3.82;100.00
2178;BME280;1095;50.992;6.798;2024-03-06T02:47:46;101270.56;;;3.75;100.00
2178;BME280;1095;50.992;6.798;2024-03-06T02:50:21;101268.38;;;3.66;100.00
2178;BME280;1095;50.992;6.798;2024-03-06T02:52:55;101264.88;;;3.67;100.00
2178;BME280;1095;50.992;6.798;2024-03-06T02:55:22;101265.94;;;3.63;100.00
2178;BME280;1095;50.992;6.798;2024-03-06T02:57:49;101263.09;;;3.67;100.00
2178;BME280;1095;50.992;6.798;2024-03-06T03:00:16;101271.00;;;3.66;100.00
2178;BME280;1095;50.992;6.798;2024-03-06T03:02:52;101267.28;;;3.52;100.00
2178;BME280;1095;50.992;6.798;2024-03-06T03:09:03;101274.91;;;3.57;100.00
2178;BME280;1095;50.992;6.798;2024-03-06T03:11:30;101273.09;;;3.59;100.00
2178;BME280;1095;50.992;6.798;2024-03-06T03:13:59;101285.03;;;3.65;100.00
2178;BME280;1095;50.992;6.798;2024-03-06T03:16:42;101280.03;;;3.77;100.00
2178;BME280;1095;50.992;6.798;2024-03-06T03:22:52;101277.44;;;3.95;100.00
2178;BME280;1095;50.992;6.798;2024-03-06T03:39:32;101292.94;;;4.17;100.00
2178;BME280;1095;50.992;6.798;2024-03-06T03:42:02;101294.63;;;4.18;100.00
2178;BME280;1095;50.992;6.798;2024-03-06T03:44:42;101295.19;;;4.24;100.00
2178;BME280;1095;50.992;6.798;2024-03-06T04:12:04;101332.66;;;3.90;100.00
2178;BME280;1095;50.992;6.798;2024-03-06T04:14:31;101337.75;;;3.93;100.00
2178;BME280;1095;50.992;6.798;2024-03-06T04:16:58;101342.13;;;3.93;100.00
2178;BME280;1095;50.992;6.798;2024-03-06T04:19:24;101335.50;;;3.86;100.00
2178;BME280;1095;50.992;6.798;2024-03-06T04:21:52;101343.97;;;3.91;100.00
2178;BME280;1095;50.992;6.798;2024-03-06T04:24:19;101338.53;;;3.95;100.00
2178;BME280;1095;50.992;6.798;2024-03-06T04:26:46;101348.78;;;4.00;100.00
2178;BME280;1095;50.992;6.798;2024-03-06T04:29:15;101342.06;;;3.94;100.00
2178;BME280;1095;50.992;6.798;2024-03-06T04:31:42;101352.41;;;3.97;100.00
2178;BME280;1095;50.992;6.798;2024-03-06T04:34:12;101339.72;;;3.88;100.00
2178;BME280;1095;50.992;6.798;2024-03-06T04:36:38;101351.00;;;3.90;100.00
2178;BME280;1095;50.992;6.798;2024-03-06T04:39:06;101365.28;;;3.83;100.00
2178;BME280;1095;50.992;6.798;2024-03-06T04:41:33;101367.22;;;3.79;100.00
2178;BME280;1095;50.992;6.798;2024-03-06T04:44:00;101373.00;;;3.86;100.00
2178;BME280;1095;50.992;6.798;2024-03-06T04:46:32;101367.13;;;3.81;100.00
2178;BME280;1095;50.992;6.798;2024-03-06T04:48:59;101371.31;;;3.85;100.00
2178;BME280;1095;50.992;6.798;2024-03-06T04:51:31;101366.56;;;3.93;100.00
2178;BME280;1095;50.992;6.798;2024-03-06T04:53:59;101366.34;;;3.98;100.00
2178;BME280;1095;50.992;6.798;2024-03-06T04:56:28;101376.66;;;4.01;100.00
2178;BME280;1095;50.992;6.798;2024-03-06T04:58:56;101375.81;;;4.00;100.00
2178;BME280;1095;50.992;6.798;2024-03-06T05:01:28;101381.63;;;4.07;100.00
2178;BME280;1095;50.992;6.798;2024-03-06T05:04:02;101388.94;;;4.18;100.00
2178;BME280;1095;50.992;6.798;2024-03-06T05:06:34;101383.34;;;4.25;100.00
2178;BME280;1095;50.992;6.798;2024-03-06T05:09:03;101379.66;;;4.11;100.00
2178;BME280;1095;50.992;6.798;2024-03-06T05:11:33;101391.66;;;4.16;100.00
2178;BME280;1095;50.992;6.798;2024-03-06T05:14:02;101399.41;;;4.18;100.00
2178;BME280;1095;50.992;6.798;2024-03-06T05:16:29;101395.47;;;4.09;100.00
2178;BME280;1095;50.992;6.798;2024-03-06T05:18:58;101389.06;;;4.15;100.00
2178;BME280;1095;50.992;6.798;2024-03-06T05:21:25;101399.50;;;4.16;100.00
2178;BME280;1095;50.992;6.798;2024-03-06T05:23:51;101401.56;;;4.10;100.00
2178;BME280;1095;50.992;6.798;2024-03-06T05:26:18;101400.72;;;4.09;100.00
2178;BME280;1095;50.992;6.798;2024-03-06T05:28:46;101402.41;;;4.10;100.00
2178;BME280;1095;50.992;6.798;2024-03-06T05:31:17;101402.97;;;4.17;100.00
2178;BME280;1095;50.992;6.798;2024-03-06T05:33:47;101402.81;;;4.20;100.00
2178;BME280;1095;50.992;6.798;2024-03-06T05:36:13;101402.34;;;4.12;100.00
2178;BME280;1095;50.992;6.798;2024-03-06T05:38:40;101409.50;;;4.08;100.00
2178;BME280;1095;50.992;6.798;2024-03-06T05:41:08;101410.66;;;4.02;100.00
2178;BME280;1095;50.992;6.798;2024-03-06T05:43:35;101413.41;;;3.99;100.00
2178;BME280;1095;50.992;6.798;2024-03-06T05:46:03;101416.00;;;3.99;100.00
2178;BME280;1095;50.992;6.798;2024-03-06T05:48:30;101418.72;;;3.98;100.00
2178;BME280;1095;50.992;6.798;2024-03-06T05:50:59;101424.38;;;3.89;100.00
2178;BME280;1095;50.992;6.798;2024-03-06T05:53:25;101423.50;;;3.88;100.00
2178;BME280;1095;50.992;6.798;2024-03-06T05:56:04;101430.91;;;3.80;100.00
2178;BME280;1095;50.992;6.798;2024-03-06T05:58:31;101427.91;;;3.88;100.00
2178;BME280;1095;50.992;6.798;2024-03-06T06:01:01;101430.31;;;3.92;100.00
2178;BME280;1095;50.992;6.798;2024-03-06T06:03:43;101436.34;;;3.94;100.00
2178;BME280;1095;50.992;6.798;2024-03-06T06:06:09;101458.00;;;3.98;100.00
2178;BME280;1095;50.992;6.798;2024-03-06T06:08:36;101447.31;;;4.02;100.00
2178;BME280;1095;50.992;6.798;2024-03-06T06:11:03;101449.63;;;4.09;100.00
2178;BME280;1095;50.992;6.798;2024-03-06T06:13:30;101462.31;;;3.99;100.00
2178;BME280;1095;50.992;6.798;2024-03-06T06:15:57;101472.44;;;4.07;100.00
2178;BME280;1095;50.992;6.798;2024-03-06T06:18:24;101465.44;;;4.07;100.00
2178;BME280;1095;50.992;6.798;2024-03-06T06:20:55;101471.63;;;4.04;100.00
2178;BME280;1095;50.992;6.798;2024-03-06T06:23:22;101474.19;;;4.06;100.00
2178;BME280;1095;50.992;6.798;2024-03-06T06:25:48;101475.19;;;4.03;100.00
2178;BME280;1095;50.992;6.798;2024-03-06T06:28:15;101476.97;;;4.03;100.00
2178;BME280;1095;50.992;6.798;2024-03-06T06:30:42;101483.34;;;3.97;100.00
2178;BME280;1095;50.992;6.798;2024-03-06T06:33:09;101478.22;;;3.94;99.51
2178;BME280;1095;50.992;6.798;2024-03-06T06:35:35;101480.06;;;3.92;100.00
2178;BME280;1095;50.992;6.798;2024-03-06T06:38:04;101484.41;;;3.93;100.00
2178;BME280;1095;50.992;6.798;2024-03-06T06:40:34;101483.81;;;3.87;100.00
2178;BME280;1095;50.992;6.798;2024-03-06T06:43:10;101472.63;;;3.83;100.00
2178;BME280;1095;50.992;6.798;2024-03-06T06:46:04;101489.75;;;3.90;100.00
2178;BME280;1095;50.992;6.798;2024-03-06T06:49:08;101499.44;;;3.88;100.00
2178;BME280;1095;50.992;6.798;2024-03-06T06:51:37;101500.88;;;3.95;100.00
2178;BME280;1095;50.992;6.798;2024-03-06T06:54:06;101499.94;;;3.96;99.62
2178;BME280;1095;50.992;6.798;2024-03-06T06:56:41;101493.72;;;3.99;99.64
2178;BME280;1095;50.992;6.798;2024-03-06T06:59:11;101514.81;;;4.15;100.00
2178;BME280;1095;50.992;6.798;2024-03-06T07:01:38;101505.31;;;4.31;100.00
2178;BME280;1095;50.992;6.798;2024-03-06T07:05:38;101514.47;;;4.59;97.15
2178;BME280;1095;50.992;6.798;2024-03-06T07:07:56;101510.84;;;5.15;97.68
2178;BME280;1095;50.992;6.798;2024-03-06T07:10:56;101517.78;;;5.66;96.63
2178;BME280;1095;50.992;6.798;2024-03-06T07:14:07;101518.78;;;5.81;90.46
2178;BME280;1095;50.992;6.798;2024-03-06T07:17:05;101522.06;;;5.51;89.97
2178;BME280;1095;50.992;6.798;2024-03-06T07:20:04;101526.97;;;5.42;90.76
2178;BME280;1095;50.992;6.798;2024-03-06T07:22:54;101531.28;;;5.93;90.08
2178;BME280;1095;50.992;6.798;2024-03-06T07:25:44;101506.22;;;6.35;85.31
2178;BME280;1095;50.992;6.798;2024-03-06T07:28:40;101522.34;;;7.21;83.61
2178;BME280;1095;50.992;6.798;2024-03-06T07:31:24;101516.59;;;7.87;82.34
2178;BME280;1095;50.992;6.798;2024-03-06T07:33:59;101528.41;;;8.91;78.67
2178;BME280;1095;50.992;6.798;2024-03-06T07:36:58;101527.81;;;9.13;74.92
2178;BME280;1095;50.992;6.798;2024-03-06T07:39:53;101534.38;;;9.33;72.96
2178;BME280;1095;50.992;6.798;2024-03-06T07:42:30;101512.03;;;9.51;72.11
2178;BME280;1095;50.992;6.798;2024-03-06T07:48:49;101542.94;;;7.87;75.75
2178;BME280;1095;50.992;6.798;2024-03-06T07:51:48;101551.59;;;7.00;80.51
2178;BME280;1095;50.992;6.798;2024-03-06T07:54:19;101570.66;;;6.42;82.99
2178;BME280;1095;50.992;6.798;2024-03-06T07:57:07;101581.00;;;6.14;84.92
2178;BME280;1095;50.992;6.798;2024-03-06T07:59:39;101576.34;;;6.19;85.62
2178;BME280;1095;50.992;6.798;2024-03-06T08:02:12;101575.38;;;5.87;87.12
2178;BME280;1095;50.992;6.798;2024-03-06T08:04:41;101571.41;;;6.13;86.83
2178;BME280;1095;50.992;6.798;2024-03-06T08:07:16;101593.16;;;6.48;86.22
2178;BME280;1095;50.992;6.798;2024-03-06T08:10:14;101585.94;;;6.51;85.21
2178;BME280;1095;50.992;6.798;2024-03-06T08:12:44;101583.47;;;6.80;84.00
2178;BME280;1095;50.992;6.798;2024-03-06T08:15:15;101592.06;;;6.52;84.66
2178;BME280;1095;50.992;6.798;2024-03-06T08:17:44;101594.84;;;6.65;85.37
2178;BME280;1095;50.992;6.798;2024-03-06T08:20:21;101582.28;;;6.86;82.76
2178;BME280;1095;50.992;6.798;2024-03-06T08:22:50;101578.44;;;7.37;82.16
2178;BME280;1095;50.992;6.798;2024-03-06T08:25:36;101580.13;;;8.40;78.96
2178;BME280;1095;50.992;6.798;2024-03-06T08:28:06;101596.47;;;9.13;75.54
2178;BME280;1095;50.992;6.798;2024-03-06T08:30:38;101585.63;;;9.18;73.82
2178;BME280;1095;50.992;6.798;2024-03-06T08:33:10;101582.41;;;9.40;74.34
2178;BME280;1095;50.992;6.798;2024-03-06T08:35:41;101583.28;;;9.91;72.88
2178;BME280;1095;50.992;6.798;2024-03-06T08:38:14;101598.06;;;9.55;71.77
2178;BME280;1095;50.992;6.798;2024-03-06T08:40:42;101601.72;;;9.40;72.28
2178;BME280;1095;50.992;6.798;2024-03-06T08:43:10;101598.06;;;10.06;69.27
2178;BME280;1095;50.992;6.798;2024-03-06T08:45:38;101598.94;;;10.32;68.85
2178;BME280;1095;50.992;6.798;2024-03-06T08:48:05;101598.78;;;10.21;70.47
2178;BME280;1095;50.992;6.798;2024-03-06T08:50:32;101607.38;;;9.99;70.20
2178;BME280;1095;50.992;6.798;2024-03-06T08:52:59;101606.84;;;9.69;71.78
2178;BME280;1095;50.992;6.798;2024-03-06T08:55:27;101601.34;;;10.35;69.64
2178;BME280;1095;50.992;6.798;2024-03-06T08:57:54;101604.78;;;10.61;69.79
2178;BME280;1095;50.992;6.798;2024-03-06T09:00:21;101600.38;;;10.24;67.59
2178;BME280;1095;50.992;6.798;2024-03-06T09:02:48;101608.66;;;9.81;68.91
2178;BME280;1095;50.992;6.798;2024-03-06T09:05:15;101611.81;;;9.99;69.24
2178;BME280;1095;50.992;6.798;2024-03-06T09:07:41;101604.53;;;10.15;70.70
2178;BME280;1095;50.992;6.798;2024-03-06T09:10:10;101606.91;;;10.56;69.79
2178;BME280;1095;50.992;6.798;2024-03-06T09:12:37;101624.38;;;10.59;69.57
2178;BME280;1095;50.992;6.798;2024-03-06T09:15:05;101611.69;;;10.51;68.77
2178;BME280;1095;50.992;6.798;2024-03-06T09:17:32;101618.72;;;10.27;71.90
2178;BME280;1095;50.992;6.798;2024-03-06T09:20:00;101622.72;;;10.20;71.26
2178;BME280;1095;50.992;6.798;2024-03-06T09:22:35;101616.94;;;10.27;71.06
2178;BME280;1095;50.992;6.798;2024-03-06T09:25:02;101620.59;;;10.12;71.32
2178;BME280;1095;50.992;6.798;2024-03-06T09:27:30;101618.72;;;10.01;70.25
2178;BME280;1095;50.992;6.798;2024-03-06T09:29:56;101631.81;;;9.25;71.97
2178;BME280;1095;50.992;6.798;2024-03-06T09:32:23;101635.91;;;8.89;75.93
2178;BME280;1095;50.992;6.798;2024-03-06T09:34:51;101634.66;;;9.22;74.52
2178;BME280;1095;50.992;6.798;2024-03-06T09:37:18;101631.34;;;9.18;74.69
2178;BME280;1095;50.992;6.798;2024-03-06T09:39:44;101627.75;;;9.19;75.02
2178;BME280;1095;50.992;6.798;2024-03-06T09:42:12;101633.63;;;9.37;74.67
2178;BME280;1095;50.992;6.798;2024-03-06T09:44:40;101636.25;;;9.37;74.66
2178;BME280;1095;50.992;6.798;2024-03-06T09:47:11;101648.59;;;9.24;73.81
2178;BME280;1095;50.992;6.798;2024-03-06T09:49:39;101645.03;;;9.25;74.30
2178;BME280;1095;50.992;6.798;2024-03-06T09:52:06;101647.94;;;9.47;74.93
2178;BME280;1095;50.992;6.798;2024-03-06T09:54:33;101649.44;;;9.51;74.29
2178;BME280;1095;50.992;6.798;2024-03-06T09:57:00;101653.06;;;9.76;72.97
2178;BME280;1095;50.992;6.798;2024-03-06T09:59:27;101647.13;;;9.72;73.77
2178;BME280;1095;50.992;6.798;2024-03-06T10:01:56;101652.00;;;9.66;73.19
2178;BME280;1095;50.992;6.798;2024-03-06T10:04:24;101648.75;;;9.35;73.79
2178;BME280;1095;50.992;6.798;2024-03-06T10:06:52;101665.78;;;9.17;74.11
2178;BME280;1095;50.992;6.798;2024-03-06T10:09:20;101655.06;;;9.32;74.59
2178;BME280;1095;50.992;6.798;2024-03-06T10:11:47;101651.66;;;9.57;74.55
2178;BME280;1095;50.992;6.798;2024-03-06T10:14:14;101661.94;;;9.75;72.76
2178;BME280;1095;50.992;6.798;2024-03-06T10:16:55;101655.94;;;9.46;74.25
2178;BME280;1095;50.992;6.798;2024-03-06T10:19:23;101654.00;;;9.62;73.51
2178;BME280;1095;50.992;6.798;2024-03-06T10:21:52;101658.47;;;9.87;73.13
2178;BME280;1095;50.992;6.798;2024-03-06T10:24:20;101663.44;;;10.04;70.90
2178;BME280;1095;50.992;6.798;2024-03-06T10:26:49;101663.88;;;9.98;71.45
2178;BME280;1095;50.992;6.798;2024-03-06T10:29:16;101670.22;;;10.08;71.88
2178;BME280;1095;50.992;6.798;2024-03-06T10:31:48;101669.16;;;9.98;71.78
2178;BME280;1095;50.992;6.798;2024-03-06T10:34:17;101671.81;;;9.98;71.63
2178;BME280;1095;50.992;6.798;2024-03-06T10:36:44;101668.72;;;10.04;71.23
2178;BME280;1095;50.992;6.798;2024-03-06T10:39:11;101662.59;;;10.04;71.60
2178;BME280;1095;50.992;6.798;2024-03-06T10:41:39;101675.31;;;10.11;70.08
2178;BME280;1095;50.992;6.798;2024-03-06T10:44:11;101674.13;;;9.90;69.70
2178;BME280;1095;50.992;6.798;2024-03-06T10:46:39;101671.50;;;10.16;69.99
2178;BME280;1095;50.992;6.798;2024-03-06T10:49:10;101677.47;;;10.32;69.58
2178;BME280;1095;50.992;6.798;2024-03-06T10:51:40;101673.28;;;10.15;68.96
2178;BME280;1095;50.992;6.798;2024-03-06T10:54:08;101668.88;;;10.41;69.04
2178;BME280;1095;50.992;6.798;2024-03-06T10:56:38;101671.69;;;11.00;68.95
2178;BME280;1095;50.992;6.798;2024-03-06T10:59:07;101671.75;;;10.87;68.82
2178;BME280;1095;50.992;6.798;2024-03-06T11:01:35;101668.75;;;10.55;68.68
2178;BME280;1095;50.992;6.798;2024-03-06T11:04:02;101670.25;;;10.47;69.23
2178;BME280;1095;50.992;6.798;2024-03-06T11:06:30;101680.63;;;10.50;69.72
2178;BME280;1095;50.992;6.798;2024-03-06T11:09:00;101676.25;;;10.61;68.98
2178;BME280;1095;50.992;6.798;2024-03-06T11:11:27;101677.53;;;10.93;67.64
2178;BME280;1095;50.992;6.798;2024-03-06T11:13:54;101684.31;;;10.97;66.20
2178;BME280;1095;50.992;6.798;2024-03-06T11:16:27;101679.78;;;11.23;66.36
2178;BME280;1095;50.992;6.798;2024-03-06T11:19:04;101681.28;;;11.62;65.07
2178;BME280;1095;50.992;6.798;2024-03-06T11:21:31;101671.88;;;12.04;64.53
2178;BME280;1095;50.992;6.798;2024-03-06T11:24:19;101689.09;;;11.52;66.75
2178;BME280;1095;50.992;6.798;2024-03-06T11:26:47;101680.16;;;11.53;67.43
2178;BME280;1095;50.992;6.798;2024-03-06T11:29:16;101678.75;;;11.12;69.55
2178;BME280;1095;50.992;6.798;2024-03-06T11:32:02;101681.63;;;11.33;67.45
2178;BME280;1095;50.992;6.798;2024-03-06T11:34:32;101682.03;;;11.40;67.51
2178;BME280;1095;50.992;6.798;2024-03-06T11:36:59;101678.22;;;11.79;66.14
2178;BME280;1095;50.992;6.798;2024-03-06T11:39:33;101674.59;;;11.80;62.52
2178;BME280;1095;50.992;6.798;2024-03-06T11:42:02;101678.22;;;11.55;62.12
2178;BME280;1095;50.992;6.798;2024-03-06T11:44:34;101680.09;;;11.42;61.71
2178;BME280;1095;50.992;6.798;2024-03-06T11:47:02;101674.81;;;11.42;61.88
2178;BME280;1095;50.992;6.798;2024-03-06T11:49:30;101684.41;;;11.32;59.96
2178;BME280;1095;50.992;6.798;2024-03-06T11:52:00;101677.00;;;11.48;61.25
2178;BME280;1095;50.992;6.798;2024-03-06T11:54:28;101677.44;;;11.42;61.02
2178;BME280;1095;50.992;6.798;2024-03-06T11:56:57;101676.41;;;11.80;62.64
2178;BME280;1095;50.992;6.798;2024-03-06T11:59:25;101680.03;;;11.79;59.51
2178;BME280;1095;50.992;6.798;2024-03-06T12:01:52;101675.72;;;11.65;57.41
2178;BME280;1095;50.992;6.798;2024-03-06T12:04:20;101672.97;;;11.67;57.25
2178;BME280;1095;50.992;6.798;2024-03-06T12:06:47;101672.53;;;11.25;57.40
2178;BME280;1095;50.992;6.798;2024-03-06T12:09:14;101675.81;;;11.52;57.11
2178;BME280;1095;50.992;6.798;2024-03-06T12:11:42;101671.50;;;11.27;57.59
2178;BME280;1095;50.992;6.798;2024-03-06T12:14:14;101671.78;;;11.71;60.66
2178;BME280;1095;50.992;6.798;2024-03-06T12:16:43;101665.50;;;12.07;60.52
2178;BME280;1095;50.992;6.798;2024-03-06T12:19:09;101674.47;;;11.82;60.78
2178;BME280;1095;50.992;6.798;2024-03-06T12:21:36;101676.84;;;11.74;62.63
2178;BME280;1095;50.992;6.798;2024-03-06T12:24:06;101675.91;;;12.21;59.89
2178;BME280;1095;50.992;6.798;2024-03-06T12:26:33;101677.31;;;12.14;58.85
2178;BME280;1095;50.992;6.798;2024-03-06T12:29:06;101671.88;;;12.04;57.03
2178;BME280;1095;50.992;6.798;2024-03-06T12:31:36;101677.59;;;11.76;57.43
2178;BME280;1095;50.992;6.798;2024-03-06T12:34:03;101678.81;;;11.83;61.53
2178;BME280;1095;50.992;6.798;2024-03-06T12:36:30;101683.94;;;11.97;59.44
2178;BME280;1095;50.992;6.798;2024-03-06T12:38:59;101679.69;;;11.83;56.90
2178;BME280;1095;50.992;6.798;2024-03-06T12:41:26;101674.94;;;11.76;59.09
2178;BME280;1095;50.992;6.798;2024-03-06T12:43:53;101681.88;;;11.30;60.22
2178;BME280;1095;50.992;6.798;2024-03-06T12:46:21;101680.00;;;11.44;61.70
2178;BME280;1095;50.992;6.798;2024-03-06T12:48:50;101684.91;;;11.37;61.83
2178;BME280;1095;50.992;6.798;2024-03-06T12:51:16;101677.00;;;11.24;61.66
2178;BME280;1095;50.992;6.798;2024-03-06T12:53:43;101680.16;;;11.29;61.55
2178;BME280;1095;50.992;6.798;2024-03-06T12:56:10;101672.16;;;11.18;62.12
2178;BME280;1095;50.992;6.798;2024-03-06T12:58:36;101676.78;;;11.27;60.97
2178;BME280;1095;50.992;6.798;2024-03-06T13:01:03;101677.22;;;11.45;61.40
2178;BME280;1095;50.992;6.798;2024-03-06T13:03:30;101680.66;;;11.10;60.91
2178;BME280;1095;50.992;6.798;2024-03-06T13:05:59;101679.22;;;10.94;61.59
2178;BME280;1095;50.992;6.798;2024-03-06T13:08:26;101673.19;;;11.04;61.98
2178;BME280;1095;50.992;6.798;2024-03-06T13:10:53;101674.94;;;11.17;61.62
2178;BME280;1095;50.992;6.798;2024-03-06T13:13:19;101668.59;;;11.54;61.92
2178;BME280;1095;50.992;6.798;2024-03-06T13:15:51;101671.69;;;11.24;61.40
2178;BME280;1095;50.992;6.798;2024-03-06T13:18:18;101677.53;;;10.93;60.62
2178;BME280;1095;50.992;6.798;2024-03-06T13:20:45;101670.19;;;10.85;62.03
2178;BME280;1095;50.992;6.798;2024-03-06T13:23:13;101665.94;;;10.82;61.35
2178;BME280;1095;50.992;6.798;2024-03-06T13:25:39;101666.56;;;10.86;61.19
2178;BME280;1095;50.992;6.798;2024-03-06T13:28:06;101672.88;;;10.96;61.43
2178;BME280;1095;50.992;6.798;2024-03-06T13:30:34;101670.22;;;10.96;61.33
2178;BME280;1095;50.992;6.798;2024-03-06T13:33:00;101671.88;;;10.86;61.26
2178;BME280;1095;50.992;6.798;2024-03-06T13:35:27;101673.53;;;10.87;61.75
2178;BME280;1095;50.992;6.798;2024-03-06T13:37:54;101676.97;;;10.76;60.59
2178;BME280;1095;50.992;6.798;2024-03-06T13:40:22;101676.81;;;10.91;60.24
2178;BME280;1095;50.992;6.798;2024-03-06T13:42:51;101674.41;;;10.75;59.90
2178;BME280;1095;50.992;6.798;2024-03-06T13:45:17;101676.88;;;11.02;59.16
2178;BME280;1095;50.992;6.798;2024-03-06T13:47:45;101677.84;;;11.25;59.67
2178;BME280;1095;50.992;6.798;2024-03-06T13:50:13;101674.50;;;11.34;57.22
2178;BME280;1095;50.992;6.798;2024-03-06T13:52:42;101672.31;;;11.28;57.11
2178;BME280;1095;50.992;6.798;2024-03-06T13:55:10;101680.94;;;11.67;57.26
2178;BME280;1095;50.992;6.798;2024-03-06T13:57:40;101674.03;;;11.64;56.57
2178;BME280;1095;50.992;6.798;2024-03-06T14:00:08;101673.97;;;11.77;56.86
2178;BME280;1095;50.992;6.798;2024-03-06T14:02:42;101683.50;;;11.44;56.70
2178;BME280;1095;50.992;6.798;2024-03-06T14:05:09;101674.13;;;11.51;56.17
2178;BME280;1095;50.992;6.798;2024-03-06T14:07:35;101676.50;;;11.43;57.57
2178;BME280;1095;50.992;6.798;2024-03-06T14:10:02;101680.06;;;11.31;57.24
2178;BME280;1095;50.992;6.798;2024-03-06T14:12:29;101673.81;;;11.67;57.75
2178;BME280;1095;50.992;6.798;2024-03-06T14:14:57;101672.84;;;11.92;56.55
2178;BME280;1095;50.992;6.798;2024-03-06T14:17:23;101666.66;;;11.92;56.77
2178;BME280;1095;50.992;6.798;2024-03-06T14:19:50;101672.41;;;11.74;56.11
2178;BME280;1095;50.992;6.798;2024-03-06T14:22:17;101666.84;;;11.77;55.28
2178;BME280;1095;50.992;6.798;2024-03-06T14:24:44;101678.22;;;11.79;56.36
2178;BME280;1095;50.992;6.798;2024-03-06T14:27:10;101675.50;;;11.68;55.35
2178;BME280;1095;50.992;6.798;2024-03-06T14:29:37;101684.44;;;11.67;56.56
2178;BME280;1095;50.992;6.798;2024-03-06T14:32:06;101684.16;;;11.59;56.08
2178;BME280;1095;50.992;6.798;2024-03-06T14:34:34;101687.44;;;11.62;55.25
2178;BME280;1095;50.992;6.798;2024-03-06T14:37:00;101684.28;;;11.57;55.59
2178;BME280;1095;50.992;6.798;2024-03-06T14:39:27;101679.34;;;11.64;55.21
2178;BME280;1095;50.992;6.798;2024-03-06T14:41:54;101682.00;;;11.64;54.87
2178;BME280;1095;50.992;6.798;2024-03-06T14:44:20;101676.28;;;11.81;55.75
2178;BME280;1095;50.992;6.798;2024-03-06T14:46:47;101677.88;;;11.84;54.86
2178;BME280;1095;50.992;6.798;2024-03-06T14:49:15;101680.63;;;11.82;54.87
2178;BME280;1095;50.992;6.798;2024-03-06T14:51:42;101676.84;;;11.74;54.85
2178;BME280;1095;50.992;6.798;2024-03-06T14:54:09;101675.72;;;11.65;54.62
2178;BME280;1095;50.992;6.798;2024-03-06T14:56:35;101678.38;;;11.65;54.80
2178;BME280;1095;50.992;6.798;2024-03-06T14:59:02;101673.00;;;11.78;54.61
2178;BME280;1095;50.992;6.798;2024-03-06T15:01:29;101678.44;;;11.76;54.37
2178;BME280;1095;50.992;6.798;2024-03-06T15:03:56;101673.84;;;11.78;54.20
2178;BME280;1095;50.992;6.798;2024-03-06T15:06:24;101669.22;;;11.93;54.23
2178;BME280;1095;50.992;6.798;2024-03-06T15:08:51;101680.16;;;11.53;53.45